createdAt,value
2023-02-24T00:01:24.788Z,74.19
2023-02-24T00:03:27.387Z,74.33
2023-02-24T00:05:29.899Z,74.27
2023-02-24T00:07:32.418Z,74.36
2023-02-24T00:09:34.972Z,72.82
2023-02-24T00:11:38.959Z,73.53
2023-02-24T00:13:46.359Z,74.05
2023-02-24T00:16:00.766Z,74.03
2023-02-24T00:18:07.024Z,74.34
2023-02-24T00:20:12.068Z,73.63
2023-02-24T00:22:14.623Z,73.79
2023-02-24T00:24:17.146Z,74.35
2023-02-24T00:26:19.918Z,73.96
2023-02-24T00:28:22.451Z,74.01
2023-02-24T00:30:25.067Z,73.62
2023-02-24T00:32:27.732Z,73.01
2023-02-24T00:34:33.843Z,72.21
2023-02-24T00:36:36.689Z,73.06
2023-02-24T00:38:40.189Z,72.30
2023-02-24T00:40:45.244Z,72.54
2023-02-24T00:42:48.565Z,73.01
2023-02-24T00:44:54.002Z,73.18
2023-02-24T00:46:56.556Z,73.57
2023-02-24T00:48:59.075Z,73.66
2023-02-24T00:51:03.336Z,73.90
2023-02-24T00:53:07.501Z,73.93
2023-02-24T00:55:13.943Z,73.91
2023-02-24T00:57:18.509Z,73.98
2023-02-24T00:59:24.101Z,72.69
2023-02-24T01:01:29.178Z,72.94
2023-02-24T01:03:32.832Z,72.41
2023-02-24T01:05:38.746Z,73.04
2023-02-24T01:07:42.658Z,73.13
2023-02-24T01:09:45.404Z,73.26
2023-02-24T01:12:13.040Z,73.10
2023-02-24T01:14:18.905Z,72.65
2023-02-24T01:16:21.681Z,72.45
2023-02-24T01:18:24.238Z,73.05
2023-02-24T01:20:30.372Z,73.25
2023-02-24T01:22:34.081Z,72.95
2023-02-24T01:24:39.858Z,72.93
2023-02-24T01:26:42.630Z,73.24
2023-02-24T01:28:48.019Z,72.78
2023-02-24T01:30:50.836Z,72.36
2023-02-24T01:32:53.664Z,73.05
2023-02-24T01:34:56.410Z,72.69
2023-02-24T01:36:59.118Z,72.56
2023-02-24T01:39:02.249Z,73.52
2023-02-24T01:41:08.324Z,73.47
2023-02-24T01:43:11.808Z,72.43
2023-02-24T01:45:19.768Z,72.48
2023-02-24T01:47:22.408Z,72.34
2023-02-24T01:49:29.668Z,73.04
2023-02-24T01:51:37.387Z,72.37
2023-02-24T01:53:40.034Z,72.92
2023-02-24T01:55:47.024Z,72.26
2023-02-24T01:57:53.387Z,73.12
2023-02-24T02:00:01.885Z,72.83
2023-02-24T02:02:08.612Z,72.78
2023-02-24T02:04:19.083Z,73.22
2023-02-24T02:06:21.761Z,73.35
2023-02-24T02:08:25.206Z,73.98
2023-02-24T02:10:28.916Z,73.67
2023-02-24T02:12:36.975Z,73.88
2023-02-24T02:14:44.056Z,74.44
2023-02-24T02:17:03.757Z,74.17
2023-02-24T02:19:45.111Z,74.23
2023-02-24T02:22:08.645Z,74.28
2023-02-24T02:24:23.092Z,73.89
2023-02-24T02:26:57.743Z,73.93
2023-02-24T02:29:25.471Z,73.80
2023-02-24T02:31:50.858Z,72.97
2023-02-24T02:34:08.890Z,73.09
2023-02-24T02:36:21.884Z,73.45
2023-02-24T02:38:30.849Z,73.41
2023-02-24T02:40:40.825Z,73.40
2023-02-24T02:42:48.257Z,72.90
2023-02-24T02:44:55.956Z,73.37
2023-02-24T02:47:04.594Z,72.63
2023-02-24T02:49:16.884Z,72.13
2023-02-24T02:51:22.807Z,72.68
2023-02-24T02:53:32.650Z,72.99
2023-02-24T02:55:41.718Z,73.28
2023-02-24T02:57:49.545Z,73.53
2023-02-24T02:59:57.414Z,73.58
2023-02-24T03:02:11.475Z,73.86
2023-02-24T03:04:22.805Z,73.65
2023-02-24T03:06:29.023Z,74.03
2023-02-24T03:08:37.147Z,73.71
2023-02-24T03:10:44.698Z,73.78
2023-02-24T03:12:51.776Z,74.20
2023-02-24T03:15:00.013Z,74.14
2023-02-24T03:17:06.486Z,74.28
2023-02-24T03:22:40.366Z,73.57
2023-02-24T03:24:44.518Z,73.87
2023-02-24T03:26:50.384Z,73.47
2023-02-24T03:29:00.293Z,73.76
2023-02-24T03:31:10.927Z,73.62
2023-02-24T03:33:24.142Z,73.95
2023-02-24T03:35:29.949Z,73.91
2023-02-24T03:37:33.974Z,74.16
2023-02-24T03:39:37.048Z,73.52
2023-02-24T03:41:47.166Z,73.56
2023-02-24T03:43:52.225Z,73.43
2023-02-24T03:45:56.492Z,73.25
2023-02-24T03:48:03.030Z,72.90
2023-02-24T03:50:12.633Z,72.61
2023-02-24T03:52:24.327Z,73.48
2023-02-24T03:54:49.613Z,73.30
2023-02-24T03:57:07.188Z,73.65
2023-02-24T03:59:18.669Z,73.67
2023-02-24T04:01:30.990Z,73.69
2023-02-24T04:03:38.849Z,73.87
2023-02-24T04:05:47.570Z,74.36
2023-02-24T04:07:58.752Z,74.39
2023-02-24T04:10:09.804Z,74.49
2023-02-24T04:12:19.810Z,74.48
2023-02-24T04:14:29.085Z,74.63
2023-02-24T04:16:40.065Z,74.39
2023-02-24T04:18:42.782Z,74.59
2023-02-24T04:20:49.418Z,74.28
2023-02-24T04:22:59.535Z,74.61
2023-02-24T04:25:06.025Z,73.66
2023-02-24T04:27:12.774Z,73.97
2023-02-24T04:29:24.565Z,73.00
2023-02-24T04:31:28.538Z,73.43
2023-02-24T04:33:31.172Z,73.26
2023-02-24T04:35:34.165Z,72.96
2023-02-24T04:37:39.683Z,72.80
2023-02-24T04:39:42.388Z,73.86
2023-02-24T04:41:49.292Z,73.00
2023-02-24T04:43:51.991Z,73.49
2023-02-24T04:45:55.912Z,73.88
2023-02-24T04:48:02.099Z,73.88
2023-02-24T04:50:06.634Z,74.06
2023-02-24T04:52:10.294Z,73.15
2023-02-24T04:54:17.332Z,71.83
2023-02-24T04:56:22.428Z,72.44
2023-02-24T04:58:27.958Z,72.39
2023-02-24T05:00:35.679Z,72.27
2023-02-24T05:02:38.969Z,72.69
2023-02-24T05:04:41.643Z,73.28
2023-02-24T05:06:45.122Z,73.29
2023-02-24T05:08:47.749Z,73.33
2023-02-24T05:10:52.097Z,73.81
2023-02-24T05:12:54.861Z,73.66
2023-02-24T05:15:01.291Z,73.32
2023-02-24T05:17:03.843Z,73.51
2023-02-24T05:19:20.617Z,73.73
2023-02-24T05:21:38.458Z,74.35
2023-02-24T05:23:44.300Z,74.10
2023-02-24T05:25:46.950Z,74.55
2023-02-24T05:27:49.585Z,74.46
2023-02-24T05:29:54.209Z,74.71
2023-02-24T05:32:00.417Z,75.06
2023-02-24T05:34:04.827Z,74.09
2023-02-24T05:36:12.136Z,73.89
2023-02-24T05:38:14.714Z,74.45
2023-02-24T05:40:19.958Z,74.07
2023-02-24T05:42:22.736Z,74.92
2023-02-24T05:44:27.413Z,74.76
2023-02-24T05:46:32.649Z,75.29
2023-02-24T05:48:36.961Z,75.54
2023-02-24T05:50:39.765Z,75.09
2023-02-24T05:52:45.757Z,74.62
2023-02-24T05:54:49.507Z,74.79
2023-02-24T05:56:52.113Z,74.90
2023-02-24T05:59:01.990Z,74.70
2023-02-24T06:01:16.103Z,74.93
2023-02-24T06:03:30.830Z,75.54
2023-02-24T06:05:35.480Z,75.13
2023-02-24T06:07:38.103Z,75.57
2023-02-24T06:09:44.981Z,76.32
2023-02-24T06:11:48.389Z,76.33
2023-02-24T06:13:51.008Z,76.75
2023-02-24T06:15:57.235Z,76.90
2023-02-24T06:18:01.769Z,76.48
2023-02-24T06:20:13.312Z,76.72
2023-02-24T06:22:19.673Z,76.03
2023-02-24T06:24:22.262Z,76.92
2023-02-24T06:26:29.751Z,77.61
2023-02-24T06:28:33.488Z,77.78
2023-02-24T06:30:37.763Z,77.71
2023-02-24T06:32:41.139Z,78.43
2023-02-24T06:34:43.794Z,78.43
2023-02-24T06:36:47.041Z,78.37
2023-02-24T06:38:52.622Z,77.91
2023-02-24T06:40:58.280Z,78.42
2023-02-24T06:43:00.941Z,78.08
2023-02-24T06:45:04.197Z,78.11
2023-02-24T06:47:09.132Z,78.32
2023-02-24T06:49:12.612Z,77.45
2023-02-24T06:51:16.930Z,77.69
2023-02-24T06:53:19.507Z,77.87
2023-02-24T06:55:26.452Z,78.58
2023-02-24T06:57:32.724Z,78.66
2023-02-24T06:59:35.298Z,78.74
2023-02-24T07:01:45.032Z,78.63
2023-02-24T07:04:03.414Z,78.43
2023-02-24T07:06:20.451Z,77.51
2023-02-24T07:08:25.075Z,78.05
2023-02-24T07:10:29.476Z,78.10
2023-02-24T07:12:32.005Z,77.35
2023-02-24T07:14:36.973Z,77.75
2023-02-24T07:16:41.886Z,78.06
2023-02-24T07:18:48.270Z,77.30
2023-02-24T07:20:50.841Z,76.88
2023-02-24T07:22:53.619Z,77.20
2023-02-24T07:25:01.494Z,78.06
2023-02-24T07:27:07.085Z,78.17
2023-02-24T07:29:11.525Z,77.38
2023-02-24T07:31:17.281Z,77.42
2023-02-24T07:33:20.342Z,77.44
2023-02-24T07:35:23.839Z,77.97
2023-02-24T07:37:31.437Z,77.89
2023-02-24T07:39:34.789Z,77.91
2023-02-24T07:41:37.832Z,78.57
2023-02-24T07:43:43.992Z,77.12
2023-02-24T07:45:47.428Z,77.33
2023-02-24T07:47:50.294Z,77.49
2023-02-24T07:49:52.865Z,76.04
2023-02-24T07:51:57.801Z,76.78
2023-02-24T07:54:02.679Z,76.81
2023-02-24T07:56:10.721Z,76.64
2023-02-24T07:58:13.689Z,76.70
2023-02-24T08:00:18.968Z,76.86
2023-02-24T08:02:23.774Z,76.60
2023-02-24T08:04:32.847Z,77.32
2023-02-24T08:06:38.693Z,77.60
2023-02-24T08:08:57.939Z,76.68
2023-02-24T08:11:04.079Z,76.15
2023-02-24T08:13:06.756Z,75.81
2023-02-24T08:15:17.274Z,76.58
2023-02-24T08:17:23.884Z,76.60
2023-02-24T08:19:32.805Z,76.02
2023-02-24T08:21:38.230Z,76.81
2023-02-24T08:23:44.578Z,76.46
2023-02-24T08:25:47.133Z,76.77
2023-02-24T08:28:12.249Z,76.04
2023-02-24T08:30:23.385Z,74.83
2023-02-24T08:32:33.815Z,75.41
2023-02-24T08:34:36.666Z,75.43
2023-02-24T08:36:39.244Z,75.78
2023-02-24T08:38:42.084Z,74.90
2023-02-24T08:40:54.509Z,75.36
2023-02-24T08:42:58.627Z,75.09
2023-02-24T08:45:01.844Z,73.94
2023-02-24T08:47:07.466Z,73.09
2023-02-24T08:49:12.247Z,72.24
2023-02-24T08:51:18.071Z,72.72
2023-02-24T08:53:20.809Z,73.25
2023-02-24T08:55:30.155Z,73.22
2023-02-24T08:57:35.946Z,72.73
2023-02-24T08:59:38.925Z,73.37
2023-02-24T09:02:04.153Z,73.97
2023-02-24T09:04:09.793Z,73.10
2023-02-24T09:06:16.823Z,73.18
2023-02-24T09:08:24.110Z,71.71
2023-02-24T09:10:28.569Z,72.06
2023-02-24T09:12:32.174Z,72.95
2023-02-24T09:14:37.561Z,72.79
2023-02-24T09:16:52.419Z,72.47
2023-02-24T09:19:08.894Z,72.61
2023-02-24T09:21:37.612Z,73.17
2023-02-24T09:23:46.020Z,72.94
2023-02-24T09:25:50.434Z,72.95
2023-02-24T09:27:55.864Z,73.60
2023-02-24T09:30:08.098Z,73.21
2023-02-24T09:32:14.745Z,73.61
2023-02-24T09:34:18.545Z,73.32
2023-02-24T09:36:27.966Z,72.77
2023-02-24T09:38:49.355Z,72.30
2023-02-24T09:40:52.177Z,72.63
2023-02-24T09:42:58.371Z,73.26
2023-02-24T09:45:11.386Z,73.48
2023-02-24T09:47:20.209Z,73.02
2023-02-24T09:49:28.364Z,73.42
2023-02-24T09:51:42.228Z,73.17
2023-02-24T09:53:52.538Z,72.68
2023-02-24T09:56:04.840Z,73.12
2023-02-24T09:58:31.903Z,73.27
2023-02-24T10:00:44.271Z,72.48
2023-02-24T10:03:00.185Z,72.42
2023-02-24T10:05:14.837Z,72.90
2023-02-24T10:07:28.441Z,73.48
2023-02-24T10:09:35.411Z,73.49
2023-02-24T10:11:40.738Z,74.03
2023-02-24T10:13:49.128Z,73.71
2023-02-24T10:15:59.865Z,73.30
2023-02-24T10:18:27.199Z,73.46
2023-02-24T10:20:40.392Z,73.55
2023-02-24T10:22:53.261Z,73.26
2023-02-24T10:25:10.912Z,72.88
2023-02-24T10:27:23.752Z,72.44
2023-02-24T10:29:39.057Z,72.85
2023-02-24T10:31:48.036Z,72.80
2023-02-24T10:33:53.768Z,72.71
2023-02-24T10:36:11.510Z,73.06
2023-02-24T10:38:15.902Z,72.38
2023-02-24T10:40:26.602Z,72.41
2023-02-24T10:42:32.527Z,72.36
2023-02-24T10:44:38.912Z,72.26
2023-02-24T10:46:43.089Z,73.19
2023-02-24T10:48:52.799Z,72.87
2023-02-24T10:51:08.385Z,72.31
2023-02-24T10:53:34.453Z,72.71
2023-02-24T10:56:02.066Z,73.21
2023-02-24T10:58:07.205Z,72.34
2023-02-24T11:00:32.538Z,72.21
2023-02-24T11:02:56.482Z,72.10
2023-02-24T11:05:27.288Z,72.09
2023-02-24T11:07:44.155Z,71.95
2023-02-24T11:09:52.475Z,72.57
2023-02-24T11:12:15.138Z,71.95
2023-02-24T11:14:35.879Z,72.34
2023-02-24T11:17:05.695Z,71.97
2023-02-24T11:19:08.888Z,71.53
2023-02-24T11:21:14.411Z,72.31
2023-02-24T11:23:20.006Z,72.30
2023-02-24T11:25:26.101Z,72.28
2023-02-24T11:27:30.116Z,71.43
2023-02-24T11:29:49.118Z,71.71
2023-02-24T11:32:09.056Z,71.38
2023-02-24T11:34:20.081Z,71.32
2023-02-24T11:36:30.642Z,71.49
2023-02-24T11:38:41.203Z,70.72
2023-02-24T11:40:48.274Z,71.36
2023-02-24T11:42:57.042Z,71.18
2023-02-24T11:45:06.350Z,70.30
2023-02-24T11:47:16.117Z,70.63
2023-02-24T11:49:27.883Z,71.04
2023-02-24T11:51:33.522Z,71.35
2023-02-24T11:53:37.947Z,71.17
2023-02-24T11:55:46.335Z,71.23
2023-02-24T11:57:55.370Z,70.66
2023-02-24T12:00:15.604Z,70.86
2023-02-24T12:02:28.428Z,70.54
2023-02-24T12:04:35.881Z,70.84
2023-02-24T12:06:45.302Z,70.76
2023-02-24T12:08:53.630Z,70.88
2023-02-24T12:11:02.927Z,70.21
2023-02-24T12:13:17.194Z,69.94
2023-02-24T12:15:25.593Z,70.01
2023-02-24T12:17:35.996Z,67.79
2023-02-24T12:19:51.657Z,68.03
2023-02-24T12:21:59.528Z,67.88
2023-02-24T12:24:08.485Z,67.44
2023-02-24T12:26:19.899Z,66.67
2023-02-24T12:28:39.221Z,66.36
2023-02-24T12:31:08.900Z,66.57
2023-02-24T12:33:27.916Z,66.31
2023-02-24T12:35:39.521Z,65.97
2023-02-24T12:37:59.691Z,65.93
2023-02-24T12:40:16.819Z,65.97
2023-02-24T12:42:27.296Z,65.43
2023-02-24T12:44:42.648Z,66.17
2023-02-24T12:46:48.956Z,66.97
2023-02-24T12:49:09.323Z,67.03
2023-02-24T12:51:22.902Z,67.32
2023-02-24T12:53:36.678Z,67.54
2023-02-24T12:55:50.095Z,67.16
2023-02-24T12:58:01.336Z,66.70
2023-02-24T13:00:12.558Z,66.00
2023-02-24T13:02:23.863Z,66.79
2023-02-24T13:04:35.048Z,66.62
2023-02-24T13:06:49.635Z,67.16
2023-02-24T13:08:59.467Z,66.57
2023-02-24T13:11:09.947Z,67.08
2023-02-24T13:13:20.704Z,67.24
2023-02-24T13:15:26.259Z,67.40
2023-02-24T13:17:29.624Z,67.77
2023-02-24T13:19:32.383Z,68.12
2023-02-24T13:21:35.369Z,67.51
2023-02-24T13:23:41.879Z,67.79
2023-02-24T13:25:52.110Z,67.51
2023-02-24T13:28:01.066Z,66.58
2023-02-24T13:30:08.531Z,66.79
2023-02-24T13:32:26.428Z,66.68
2023-02-24T13:34:33.132Z,66.59
2023-02-24T13:36:47.302Z,66.89
2023-02-24T13:38:52.262Z,66.11
2023-02-24T13:40:55.262Z,65.72
2023-02-24T13:43:00.583Z,66.51
2023-02-24T13:45:07.699Z,66.33
2023-02-24T13:47:45.811Z,66.54
2023-02-24T13:50:01.228Z,66.10
2023-02-24T13:52:12.749Z,66.25
2023-02-24T13:54:32.412Z,66.59
2023-02-24T13:56:42.915Z,66.73
2023-02-24T13:59:00.511Z,66.62
2023-02-24T14:01:11.771Z,65.93
2023-02-24T14:03:21.410Z,66.09
2023-02-24T14:05:28.937Z,66.24
2023-02-24T14:07:36.886Z,66.80
2023-02-24T14:09:44.280Z,67.22
2023-02-24T14:11:46.913Z,66.83
2023-02-24T14:13:53.316Z,67.35
2023-02-24T14:15:56.936Z,67.67
2023-02-24T14:18:01.237Z,67.30
2023-02-24T14:20:18.930Z,67.26
2023-02-24T14:22:23.352Z,67.42
2023-02-24T14:24:28.071Z,66.81
2023-02-24T14:26:47.022Z,65.37
2023-02-24T14:28:55.992Z,65.64
2023-02-24T14:31:01.196Z,66.16
2023-02-24T14:33:05.899Z,66.38
2023-02-24T14:35:20.393Z,66.67
2023-02-24T14:37:27.097Z,66.15
2023-02-24T14:39:32.090Z,66.17
2023-02-24T14:41:35.357Z,66.24
2023-02-24T14:43:42.821Z,65.30
2023-02-24T14:45:50.178Z,64.40
2023-02-24T14:47:53.671Z,64.93
2023-02-24T14:49:59.725Z,64.67
2023-02-24T14:52:10.485Z,64.29
2023-02-24T14:54:24.154Z,65.17
2023-02-24T14:56:31.528Z,65.51
2023-02-24T14:58:39.510Z,65.81
2023-02-24T15:00:48.092Z,65.01
2023-02-24T15:02:58.792Z,65.78
2023-02-24T15:05:01.683Z,64.91
2023-02-24T15:07:06.765Z,63.93
2023-02-24T15:09:17.011Z,64.14
2023-02-24T15:11:23.005Z,64.58
2023-02-24T15:13:35.122Z,64.50
2023-02-24T15:15:39.422Z,65.19
2023-02-24T15:17:42.400Z,65.67
2023-02-24T15:19:47.154Z,66.21
2023-02-24T15:21:49.773Z,66.13
2023-02-24T15:24:00.410Z,66.48
2023-02-24T15:26:09.515Z,66.80
2023-02-24T15:28:25.726Z,66.13
2023-02-24T15:30:32.484Z,65.71
2023-02-24T15:32:37.905Z,65.68
2023-02-24T15:34:41.330Z,66.09
2023-02-24T15:36:43.995Z,66.52
2023-02-24T15:38:47.548Z,66.13
2023-02-24T15:40:53.505Z,65.48
2023-02-24T15:42:59.778Z,65.82
2023-02-24T15:45:03.636Z,66.10
2023-02-24T15:47:22.732Z,66.32
2023-02-24T15:49:25.702Z,65.54
2023-02-24T15:51:35.078Z,65.53
2023-02-24T15:53:37.632Z,65.34
2023-02-24T15:55:42.481Z,65.19
2023-02-24T15:57:45.679Z,65.17
2023-02-24T15:59:49.565Z,65.15
2023-02-24T16:01:52.449Z,64.48
2023-02-24T16:03:55.113Z,64.72
2023-02-24T16:05:57.698Z,64.87
2023-02-24T16:08:00.348Z,65.26
2023-02-24T16:10:03.982Z,65.70
2023-02-24T16:12:11.336Z,65.37
2023-02-24T16:14:19.016Z,65.90
2023-02-24T16:16:23.978Z,66.38
2023-02-24T16:18:27.081Z,66.62
2023-02-24T16:20:32.449Z,66.59
2023-02-24T16:22:35.040Z,65.83
2023-02-24T16:24:38.136Z,65.47
2023-02-24T16:26:41.651Z,65.92
2023-02-24T16:28:45.142Z,65.61
2023-02-24T16:30:49.599Z,66.36
2023-02-24T16:32:53.740Z,66.35
2023-02-24T16:34:57.117Z,66.07
2023-02-24T16:36:59.706Z,66.46
2023-02-24T16:39:04.835Z,66.15
2023-02-24T16:41:07.652Z,66.77
2023-02-24T16:43:10.803Z,66.76
2023-02-24T16:45:13.398Z,66.62
2023-02-24T16:47:20.143Z,66.58
2023-02-24T16:49:24.278Z,66.69
2023-02-24T16:51:28.984Z,67.00
2023-02-24T16:53:32.025Z,66.84
2023-02-24T16:55:34.877Z,66.95
2023-02-24T16:57:37.551Z,67.34
2023-02-24T16:59:40.216Z,67.62
2023-02-24T17:01:43.467Z,66.92
2023-02-24T17:03:48.492Z,67.26
2023-02-24T17:05:52.806Z,67.51
2023-02-24T17:07:57.183Z,66.89
2023-02-24T17:09:59.830Z,67.13
2023-02-24T17:12:02.436Z,67.68
2023-02-24T17:14:05.044Z,68.32
2023-02-24T17:16:07.889Z,68.76
2023-02-24T17:18:10.656Z,69.30
2023-02-24T17:20:15.791Z,69.55
2023-02-24T17:22:20.318Z,69.96
2023-02-24T17:24:22.904Z,70.24
2023-02-24T17:26:25.643Z,70.53
2023-02-24T17:28:29.009Z,71.33
2023-02-24T17:30:33.989Z,71.71
2023-02-24T17:32:36.625Z,71.95
2023-02-24T17:34:39.250Z,72.70
2023-02-24T17:36:41.818Z,71.92
2023-02-24T17:38:45.852Z,71.93
2023-02-24T17:40:48.951Z,72.65
2023-02-24T17:42:51.720Z,72.65
2023-02-24T17:44:54.420Z,72.62
2023-02-24T17:46:56.991Z,73.44
2023-02-24T17:49:00.224Z,73.38
2023-02-24T17:51:02.875Z,73.35
2023-02-24T17:53:05.503Z,73.16
2023-02-24T17:55:12.625Z,74.23
2023-02-24T17:57:15.221Z,74.48
2023-02-24T17:59:17.890Z,74.23
2023-02-24T18:01:20.483Z,74.73
2023-02-24T18:03:23.206Z,74.42
2023-02-24T18:05:26.122Z,74.79
2023-02-24T18:07:29.058Z,75.05
2023-02-24T18:09:31.645Z,75.46
2023-02-24T18:11:35.953Z,75.54
2023-02-24T18:13:38.552Z,75.01
2023-02-24T18:15:41.159Z,75.09
2023-02-24T18:17:43.750Z,75.44
2023-02-24T18:19:46.408Z,74.34
2023-02-24T18:21:49.120Z,74.60
2023-02-24T18:23:51.684Z,74.61
2023-02-24T18:25:54.301Z,74.26
2023-02-24T18:27:58.187Z,74.62
2023-02-24T18:30:00.747Z,74.87
2023-02-24T18:32:04.250Z,74.67
2023-02-24T18:34:06.908Z,74.48
2023-02-24T18:36:11.331Z,74.26
2023-02-24T18:38:13.959Z,74.74
2023-02-24T18:40:16.684Z,74.69
2023-02-24T18:42:19.250Z,74.10
2023-02-24T18:44:26.170Z,74.15
2023-02-24T18:46:28.773Z,73.13
2023-02-24T18:48:32.593Z,72.39
2023-02-24T18:50:35.179Z,71.85
2023-02-24T18:52:37.733Z,72.17
2023-02-24T18:54:40.328Z,71.57
2023-02-24T18:56:42.967Z,71.10
2023-02-24T18:58:46.873Z,71.80
2023-02-24T19:00:51.562Z,71.77
2023-02-24T19:02:54.144Z,71.14
2023-02-24T19:04:57.083Z,69.26
2023-02-24T19:06:59.664Z,70.59
2023-02-24T19:09:06.055Z,70.49
2023-02-24T19:11:10.447Z,69.38
2023-02-24T19:13:13.562Z,69.81
2023-02-24T19:15:17.685Z,69.89
2023-02-24T19:17:21.674Z,69.20
2023-02-24T19:19:24.466Z,69.22
2023-02-24T19:21:29.419Z,69.71
2023-02-24T19:23:32.108Z,70.38
2023-02-24T19:25:35.039Z,70.24
2023-02-24T19:27:37.632Z,70.86
2023-02-24T19:29:40.443Z,70.80
2023-02-24T19:31:43.123Z,70.98
2023-02-24T19:33:47.380Z,70.28
2023-02-24T19:35:53.164Z,70.87
2023-02-24T19:37:55.809Z,70.53
2023-02-24T19:39:58.363Z,69.87
2023-02-24T19:42:00.926Z,70.05
2023-02-24T19:44:03.541Z,70.58
2023-02-24T19:46:07.204Z,70.49
2023-02-24T19:48:10.798Z,70.09
2023-02-24T19:50:16.574Z,69.33
2023-02-24T19:52:19.279Z,69.01
2023-02-24T19:54:22.443Z,68.66
2023-02-24T19:56:25.877Z,68.65
2023-02-24T19:58:28.435Z,67.33
2023-02-24T20:00:31.073Z,68.38
2023-02-24T20:02:33.723Z,67.12
2023-02-24T20:04:36.300Z,66.02
2023-02-24T20:06:42.995Z,65.32
2023-02-24T20:08:45.637Z,63.01
2023-02-24T20:10:48.205Z,64.04
2023-02-24T20:12:50.801Z,63.78
2023-02-24T20:14:53.555Z,60.90
2023-02-24T20:16:56.505Z,60.47
2023-02-24T20:19:00.006Z,61.75
2023-02-24T20:21:02.854Z,62.42
2023-02-24T20:23:06.821Z,62.86
2023-02-24T20:25:10.307Z,61.99
2023-02-24T20:27:12.893Z,61.16
2023-02-24T20:29:16.508Z,60.21
2023-02-24T20:31:20.243Z,59.92
2023-02-24T20:33:23.402Z,60.20
2023-02-24T20:35:26.430Z,61.67
2023-02-24T20:37:29.015Z,62.05
2023-02-24T20:39:33.517Z,61.56
2023-02-24T20:41:36.220Z,61.11
2023-02-24T20:43:39.030Z,60.89
2023-02-24T20:45:41.683Z,61.23
2023-02-24T20:47:44.315Z,61.15
2023-02-24T20:49:46.909Z,61.22
2023-02-24T20:51:49.532Z,61.32
2023-02-24T20:53:57.762Z,61.47
2023-02-24T20:56:03.590Z,60.69
2023-02-24T20:58:06.501Z,61.23
2023-02-24T21:00:10.518Z,61.42
2023-02-24T21:02:13.285Z,61.48
2023-02-24T21:04:18.149Z,60.66
2023-02-24T21:06:20.760Z,60.53
2023-02-24T21:08:23.371Z,60.28
2023-02-24T21:10:26.111Z,61.18
2023-02-24T21:12:30.202Z,61.35
2023-02-24T21:14:32.783Z,60.80
2023-02-24T21:16:36.244Z,60.45
2023-02-24T21:18:39.902Z,60.17
2023-02-24T21:20:42.451Z,60.45
2023-02-24T21:22:45.086Z,61.22
2023-02-24T21:24:47.833Z,60.90
2023-02-24T21:26:50.474Z,60.84
2023-02-24T21:28:57.882Z,60.69
2023-02-24T21:31:00.956Z,60.27
2023-02-24T21:33:04.232Z,60.54
2023-02-24T21:35:07.030Z,60.53
2023-02-24T21:37:09.648Z,60.91
2023-02-24T21:39:14.431Z,61.04
2023-02-24T21:41:19.265Z,60.45
2023-02-24T21:43:22.656Z,60.96
2023-02-24T21:45:27.599Z,62.40
2023-02-24T21:47:31.683Z,62.71
2023-02-24T21:49:34.401Z,63.08
2023-02-24T21:51:36.992Z,63.73
2023-02-24T21:53:41.825Z,63.94
2023-02-24T21:55:44.566Z,64.19
2023-02-24T21:57:47.942Z,64.62
2023-02-24T21:59:50.727Z,64.64
2023-02-24T22:01:55.164Z,65.35
2023-02-24T22:03:59.007Z,65.45
2023-02-24T22:06:01.566Z,65.96
2023-02-24T22:08:04.212Z,65.75
2023-02-24T22:10:07.672Z,65.99
2023-02-24T22:12:10.264Z,66.04
2023-02-24T22:14:15.048Z,65.58
2023-02-24T22:16:19.910Z,66.20
2023-02-24T22:18:23.925Z,65.75
2023-02-24T22:20:26.531Z,65.23
2023-02-24T22:22:29.096Z,64.54
2023-02-24T22:24:31.762Z,65.49
2023-02-24T22:26:34.750Z,66.15
2023-02-24T22:28:39.769Z,65.18
2023-02-24T22:30:42.438Z,65.24
2023-02-24T22:32:45.060Z,65.68
2023-02-24T22:34:49.245Z,66.11
2023-02-24T22:36:51.855Z,66.38
2023-02-24T22:38:56.156Z,64.92
2023-02-24T22:40:59.851Z,66.02
2023-02-24T22:43:02.583Z,66.90
2023-02-24T22:45:06.325Z,67.00
2023-02-24T22:47:09.009Z,67.12
2023-02-24T22:49:12.224Z,67.82
2023-02-24T22:51:16.333Z,67.67
2023-02-24T22:53:18.909Z,68.21
2023-02-24T22:55:21.498Z,68.10
2023-02-24T22:57:24.105Z,68.53
2023-02-24T22:59:26.650Z,68.65
2023-02-24T23:01:31.996Z,68.78
2023-02-24T23:03:34.649Z,68.90
2023-02-24T23:05:37.211Z,68.91
2023-02-24T23:07:41.139Z,69.15
2023-02-24T23:09:52.714Z,69.15
2023-02-24T23:11:55.302Z,68.88
2023-02-24T23:13:59.516Z,69.17
2023-02-24T23:16:03.499Z,69.15
2023-02-24T23:18:06.529Z,69.03
2023-02-24T23:20:12.786Z,68.90
2023-02-24T23:22:15.417Z,68.69
2023-02-24T23:24:20.745Z,68.64
2023-02-24T23:26:23.969Z,68.80
2023-02-24T23:28:27.721Z,68.50
2023-02-24T23:30:33.135Z,68.45
2023-02-24T23:32:36.256Z,68.58
2023-02-24T23:34:41.941Z,68.32
2023-02-24T23:36:47.398Z,68.56
2023-02-24T23:38:50.460Z,68.50
2023-02-24T23:40:54.339Z,68.65
2023-02-24T23:42:56.881Z,68.68
2023-02-24T23:44:59.448Z,68.65
2023-02-24T23:47:02.032Z,68.66
2023-02-24T23:49:05.717Z,68.74
2023-02-24T23:51:13.339Z,69.01
2023-02-24T23:53:15.919Z,68.94
2023-02-24T23:55:18.654Z,68.84
2023-02-24T23:57:23.141Z,69.25
2023-02-24T23:59:25.793Z,68.96
